createdAt,value
2023-04-16T00:00:07.016Z,12.00
2023-04-16T00:03:01.158Z,14.00
2023-04-16T00:05:29.397Z,16.00
2023-04-16T00:07:57.317Z,15.50
2023-04-16T00:10:25.276Z,13.00
2023-04-16T00:12:53.256Z,15.00
2023-04-16T00:15:21.251Z,15.00
2023-04-16T00:17:49.237Z,12.50
2023-04-16T00:20:17.314Z,14.00
2023-04-16T00:22:45.399Z,14.50
2023-04-16T00:25:14.095Z,13.00
2023-04-16T00:27:42.150Z,13.00
2023-04-16T00:30:10.223Z,15.00
2023-04-16T00:32:40.570Z,15.00
2023-04-16T00:35:08.581Z,15.50
2023-04-16T00:40:05.537Z,18.00
2023-04-16T00:42:33.558Z,12.00
2023-04-16T00:45:02.104Z,17.00
2023-04-16T00:47:30.071Z,19.00
2023-04-16T00:49:58.159Z,19.00
2023-04-16T00:52:26.170Z,16.00
2023-04-16T00:54:54.182Z,17.00
2023-04-16T00:57:24.054Z,21.50
2023-04-16T00:59:51.966Z,17.50
2023-04-16T01:02:19.939Z,20.50
2023-04-16T01:07:15.864Z,22.00
2023-04-16T01:09:43.790Z,20.00
2023-04-16T01:12:11.755Z,20.00
2023-04-16T01:14:39.690Z,17.00
2023-04-16T01:17:07.576Z,24.00
2023-04-16T01:19:38.612Z,20.00
2023-04-16T01:22:06.470Z,20.00
2023-04-16T01:24:35.184Z,19.50
2023-04-16T01:27:03.150Z,22.50
2023-04-16T01:29:31.410Z,18.50
2023-04-16T01:31:59.860Z,24.00
2023-04-16T01:34:33.019Z,31.00
2023-04-16T01:37:00.905Z,23.00
2023-04-16T01:39:28.964Z,19.00
2023-04-16T01:41:58.282Z,21.00
2023-04-16T01:44:26.606Z,23.50
2023-04-16T01:46:54.782Z,21.00
2023-04-16T01:49:22.929Z,19.00
2023-04-16T01:51:51.636Z,19.50
2023-04-16T01:54:19.640Z,19.50
2023-04-16T01:56:47.627Z,23.00
2023-04-16T01:59:15.639Z,23.50
2023-04-16T02:01:43.741Z,19.00
2023-04-16T02:04:11.772Z,20.50
2023-04-16T02:06:40.975Z,18.00
2023-04-16T02:09:09.319Z,21.50
2023-04-16T02:11:38.807Z,19.00
2023-04-16T02:21:41.842Z,18.00
2023-04-16T02:24:09.695Z,22.00
2023-04-16T02:26:37.932Z,22.00
2023-04-16T02:29:09.672Z,21.50
2023-04-16T02:31:42.382Z,20.00
2023-04-16T02:34:10.957Z,20.00
2023-04-16T02:36:38.949Z,22.00
2023-04-16T02:39:07.222Z,20.50
2023-04-16T02:41:35.404Z,18.00
2023-04-16T02:44:03.595Z,23.00
2023-04-16T02:46:31.759Z,22.00
2023-04-16T02:48:59.826Z,18.50
2023-04-16T02:51:27.941Z,21.00
2023-04-16T02:53:56.045Z,20.00
2023-04-16T02:56:23.966Z,20.00
2023-04-16T02:58:52.573Z,18.00
2023-04-16T03:01:20.603Z,20.00
2023-04-16T03:03:48.580Z,17.00
2023-04-16T03:08:44.302Z,19.00
2023-04-16T03:11:12.163Z,26.00
2023-04-16T03:13:40.132Z,15.00
2023-04-16T03:16:08.301Z,17.50
2023-04-16T03:18:36.694Z,20.00
2023-04-16T03:21:05.162Z,18.00
2023-04-16T03:23:33.341Z,19.00
2023-04-16T03:26:01.359Z,23.00
2023-04-16T03:28:30.346Z,25.00
2023-04-16T03:30:59.667Z,20.00
2023-04-16T03:33:27.692Z,20.00
2023-04-16T03:35:57.328Z,19.50
2023-04-16T03:38:27.072Z,21.50
2023-04-16T03:40:56.775Z,21.00
2023-04-16T03:43:24.816Z,22.50
2023-04-16T03:45:53.258Z,27.50
2023-04-16T03:48:23.125Z,23.00
2023-04-16T03:50:51.234Z,27.00
2023-04-16T03:53:20.674Z,27.50
2023-04-16T03:55:52.129Z,35.00
2023-04-16T03:58:20.465Z,33.00
2023-04-16T04:00:48.697Z,38.00
2023-04-16T04:03:18.088Z,42.00
2023-04-16T04:05:47.798Z,42.00
2023-04-16T04:08:17.699Z,44.50
2023-04-16T04:10:46.071Z,52.00
2023-04-16T04:13:14.587Z,50.00
2023-04-16T04:15:42.563Z,50.00
2023-04-16T04:18:10.466Z,52.50
2023-04-16T04:20:41.393Z,50.00
2023-04-16T04:23:09.561Z,58.00
2023-04-16T04:28:05.697Z,44.33
2023-04-16T04:30:35.814Z,55.50
2023-04-16T04:33:04.099Z,55.50
2023-04-16T04:35:32.700Z,44.00
2023-04-16T04:38:02.587Z,52.67
2023-04-16T04:40:30.924Z,57.00
2023-04-16T04:42:58.928Z,51.00
2023-04-16T04:45:27.416Z,50.00
2023-04-16T04:47:56.480Z,42.00
2023-04-16T04:50:24.409Z,46.00
2023-04-16T04:52:52.301Z,50.00
2023-04-16T04:55:20.570Z,53.00
2023-04-16T04:57:49.486Z,53.00
2023-04-16T05:00:17.758Z,47.00
2023-04-16T05:02:52.200Z,46.33
2023-04-16T05:05:20.583Z,46.00
2023-04-16T05:07:48.584Z,41.00
2023-04-16T05:10:16.815Z,38.00
2023-04-16T05:12:48.792Z,35.00
2023-04-16T05:15:17.038Z,27.50
2023-04-16T05:17:45.010Z,27.00
2023-04-16T05:22:41.484Z,29.00
2023-04-16T05:25:09.657Z,30.67
2023-04-16T05:27:38.409Z,38.50
2023-04-16T05:30:07.344Z,30.00
2023-04-16T05:32:35.728Z,34.00
2023-04-16T05:35:03.743Z,36.00
2023-04-16T05:37:31.757Z,38.50
2023-04-16T05:39:59.579Z,31.67
2023-04-16T05:42:27.588Z,23.00
2023-04-16T05:44:55.608Z,24.50
2023-04-16T05:47:24.400Z,19.00
2023-04-16T05:49:52.305Z,21.00
2023-04-16T05:52:20.280Z,22.00
2023-04-16T05:54:48.197Z,20.50
2023-04-16T05:57:16.508Z,18.00
2023-04-16T05:59:44.721Z,25.00
2023-04-16T06:02:12.670Z,27.50
2023-04-16T06:04:40.788Z,21.00
2023-04-16T06:07:08.851Z,27.50
2023-04-16T06:09:36.933Z,27.00
2023-04-16T06:12:05.043Z,28.00
2023-04-16T06:14:33.050Z,30.50
2023-04-16T06:17:01.524Z,32.00
2023-04-16T06:19:29.436Z,29.50
2023-04-16T06:21:57.423Z,31.00
2023-04-16T06:24:25.415Z,33.50
2023-04-16T06:26:54.515Z,30.00
2023-04-16T06:29:27.910Z,30.50
2023-04-16T06:32:02.171Z,28.50
2023-04-16T06:34:30.284Z,28.00
2023-04-16T06:36:58.234Z,30.00
2023-04-16T06:39:26.270Z,30.67
2023-04-16T06:41:54.136Z,29.50
2023-04-16T06:44:22.188Z,30.00
2023-04-16T06:46:51.170Z,32.00
2023-04-16T06:49:19.198Z,29.00
2023-04-16T06:51:47.073Z,31.00
2023-04-16T06:54:15.103Z,29.50
2023-04-16T06:56:43.002Z,33.00
2023-04-16T06:59:11.109Z,32.00
2023-04-16T07:01:39.498Z,31.00
2023-04-16T07:04:07.740Z,30.50
2023-04-16T07:06:35.656Z,30.00
2023-04-16T07:11:31.338Z,33.67
2023-04-16T07:13:59.195Z,34.00
2023-04-16T07:16:27.699Z,34.00
2023-04-16T07:18:55.804Z,35.00
2023-04-16T07:21:23.830Z,34.50
2023-04-16T07:23:51.890Z,31.00
2023-04-16T07:26:19.766Z,34.00
2023-04-16T07:28:47.755Z,35.33
2023-04-16T07:31:15.815Z,29.50
2023-04-16T07:33:43.837Z,38.00
2023-04-16T07:36:11.745Z,41.50
2023-04-16T07:38:39.545Z,31.00
2023-04-16T07:41:08.089Z,33.00
2023-04-16T07:43:36.586Z,37.00
2023-04-16T07:46:04.759Z,38.00
2023-04-16T07:48:32.817Z,35.00
2023-04-16T07:51:00.689Z,31.00
2023-04-16T07:53:28.566Z,31.00
2023-04-16T07:55:56.518Z,35.50
2023-04-16T07:58:24.593Z,35.00
2023-04-16T08:00:52.707Z,34.00
2023-04-16T08:03:20.748Z,39.00
2023-04-16T08:05:48.844Z,36.50
2023-04-16T08:08:16.804Z,29.00
2023-04-16T08:10:44.696Z,27.00
2023-04-16T08:13:12.758Z,33.00
2023-04-16T08:15:40.920Z,25.00
2023-04-16T08:18:13.162Z,29.00
2023-04-16T08:20:42.372Z,32.00
2023-04-16T08:23:10.484Z,27.50
2023-04-16T08:25:38.486Z,43.50
2023-04-16T08:28:06.594Z,35.00
2023-04-16T08:30:34.639Z,34.00
2023-04-16T08:33:02.650Z,42.00
2023-04-16T08:35:30.635Z,32.50
2023-04-16T08:38:01.774Z,38.00
2023-04-16T08:40:30.900Z,41.00
2023-04-16T08:42:59.488Z,36.00
2023-04-16T08:45:28.007Z,33.50
2023-04-16T08:47:56.047Z,43.00
2023-04-16T08:50:25.458Z,40.50
2023-04-16T08:52:58.239Z,39.50
2023-04-16T08:55:30.993Z,37.00
2023-04-16T08:57:59.151Z,31.00
2023-04-16T09:00:27.049Z,33.00
2023-04-16T09:02:55.210Z,31.00
2023-04-16T09:05:29.951Z,31.00
2023-04-16T09:07:59.216Z,36.50
2023-04-16T09:10:29.485Z,31.00
2023-04-16T09:12:57.619Z,39.33
2023-04-16T09:15:25.841Z,43.00
2023-04-16T09:17:54.422Z,34.00
2023-04-16T09:20:22.347Z,37.50
2023-04-16T09:22:50.536Z,43.00
2023-04-16T09:25:19.166Z,37.50
2023-04-16T09:27:49.290Z,41.00
2023-04-16T09:30:27.198Z,36.00
2023-04-16T09:33:14.613Z,42.00
2023-04-16T09:35:51.895Z,32.00
2023-04-16T09:38:20.283Z,31.50
2023-04-16T09:40:48.220Z,32.00
2023-04-16T09:43:18.579Z,39.00
2023-04-16T09:45:49.936Z,42.00
2023-04-16T09:48:34.088Z,35.00
2023-04-16T09:51:06.466Z,41.00
2023-04-16T09:53:36.067Z,33.50
2023-04-16T09:56:11.568Z,40.00
2023-04-16T10:01:17.356Z,36.50
2023-04-16T10:03:45.812Z,39.00
2023-04-16T10:06:22.357Z,38.00
2023-04-16T10:08:50.974Z,31.00
2023-04-16T10:11:21.505Z,26.50
2023-04-16T10:13:50.591Z,29.00
2023-04-16T10:16:18.497Z,32.00
2023-04-16T10:18:47.532Z,35.00
2023-04-16T10:21:16.436Z,28.00
2023-04-16T10:23:44.408Z,29.00
2023-04-16T10:26:13.832Z,36.50
2023-04-16T10:28:42.051Z,32.00
2023-04-16T10:31:10.357Z,29.00
2023-04-16T10:33:40.575Z,30.00
2023-04-16T10:36:09.840Z,32.00
2023-04-16T10:38:42.097Z,30.00
2023-04-16T10:41:11.659Z,35.50
2023-04-16T10:46:23.429Z,26.00
2023-04-16T10:48:53.834Z,20.00
2023-04-16T10:51:33.265Z,25.50
2023-04-16T10:54:19.553Z,24.50
2023-04-16T10:56:47.696Z,25.00
2023-04-16T10:59:18.648Z,27.50
2023-04-16T11:01:48.684Z,32.00
2023-04-16T11:04:19.675Z,32.00
2023-04-16T11:07:21.127Z,28.50
2023-04-16T11:10:06.061Z,32.00
2023-04-16T11:12:44.910Z,28.33
2023-04-16T11:15:14.122Z,34.00
2023-04-16T11:17:51.870Z,23.00
2023-04-16T11:20:21.246Z,21.00
2023-04-16T11:22:49.993Z,40.00
2023-04-16T11:25:30.758Z,31.00
2023-04-16T11:28:01.440Z,33.00
2023-04-16T11:30:34.215Z,27.00
2023-04-16T11:33:06.099Z,28.00
2023-04-16T11:35:34.089Z,27.00
2023-04-16T11:38:02.423Z,23.50
2023-04-16T11:40:31.314Z,28.00
2023-04-16T11:43:13.985Z,26.00
2023-04-16T11:46:02.700Z,23.00
2023-04-16T11:48:59.990Z,20.00
2023-04-16T11:51:27.888Z,21.00
2023-04-16T11:53:56.286Z,25.00
2023-04-16T11:59:09.360Z,23.67
2023-04-16T12:01:38.354Z,20.00
2023-04-16T12:04:07.890Z,24.00
2023-04-16T12:06:36.448Z,27.50
2023-04-16T12:09:24.860Z,28.00
2023-04-16T12:11:53.451Z,25.00
2023-04-16T12:14:23.058Z,23.00
2023-04-16T12:16:51.099Z,24.50
2023-04-16T12:19:19.211Z,33.00
2023-04-16T12:21:48.684Z,23.00
2023-04-16T12:24:20.807Z,27.00
2023-04-16T12:26:52.647Z,24.00
2023-04-16T12:29:24.648Z,28.50
2023-04-16T12:31:53.566Z,23.00
2023-04-16T12:34:21.600Z,27.67
2023-04-16T12:37:07.548Z,28.50
2023-04-16T12:39:35.638Z,20.00
2023-04-16T12:42:05.460Z,20.00
2023-04-16T12:44:33.500Z,22.00
2023-04-16T12:47:01.629Z,24.00
2023-04-16T12:49:29.567Z,35.50
2023-04-16T12:51:57.447Z,26.00
2023-04-16T12:54:29.041Z,22.50
2023-04-16T12:56:57.421Z,31.50
2023-04-16T12:59:25.464Z,40.00
2023-04-16T13:01:53.594Z,21.50
2023-04-16T13:04:24.181Z,22.50
2023-04-16T13:06:53.536Z,22.50
2023-04-16T13:09:21.506Z,19.00
2023-04-16T13:11:50.426Z,20.00
2023-04-16T13:14:19.966Z,25.00
2023-04-16T13:16:48.004Z,25.67
2023-04-16T13:19:16.051Z,23.00
2023-04-16T13:21:43.840Z,46.00
2023-04-16T13:24:11.951Z,25.00
2023-04-16T13:26:39.949Z,30.00
2023-04-16T13:29:08.037Z,56.00
2023-04-16T13:31:36.565Z,58.50
2023-04-16T13:34:04.949Z,24.00
2023-04-16T13:36:33.665Z,20.00
2023-04-16T13:39:04.654Z,30.00
2023-04-16T13:41:32.637Z,51.00
2023-04-16T13:44:00.755Z,20.50
2023-04-16T13:46:29.216Z,21.00
2023-04-16T13:48:57.290Z,24.50
2023-04-16T13:51:25.352Z,20.00
2023-04-16T13:53:54.249Z,26.00
2023-04-16T13:56:22.323Z,21.50
2023-04-16T13:58:50.728Z,20.00
2023-04-16T14:01:18.870Z,28.00
2023-04-16T14:03:47.054Z,24.00
2023-04-16T14:06:18.097Z,23.00
2023-04-16T14:08:46.209Z,28.50
2023-04-16T14:11:14.121Z,26.00
2023-04-16T14:13:42.014Z,23.00
2023-04-16T14:16:10.989Z,34.00
2023-04-16T14:18:42.582Z,43.50
2023-04-16T14:21:10.568Z,48.00
2023-04-16T14:23:38.525Z,56.00
2023-04-16T14:26:06.449Z,45.00
2023-04-16T14:28:35.656Z,57.67
2023-04-16T14:31:05.872Z,57.00
2023-04-16T14:33:34.007Z,50.00
2023-04-16T14:36:02.971Z,48.50
2023-04-16T14:38:31.539Z,41.50
2023-04-16T14:41:00.631Z,41.50
2023-04-16T14:43:28.907Z,37.50
2023-04-16T14:45:58.972Z,41.00
2023-04-16T14:48:27.000Z,38.00
2023-04-16T14:50:54.946Z,48.00
2023-04-16T14:53:23.756Z,45.00
2023-04-16T14:55:54.740Z,41.00
2023-04-16T14:58:22.694Z,48.00
2023-04-16T15:00:51.135Z,49.00
2023-04-16T15:03:19.592Z,57.00
2023-04-16T15:08:24.042Z,35.00
2023-04-16T15:10:52.263Z,40.00
2023-04-16T15:13:20.227Z,33.50
2023-04-16T15:15:49.538Z,33.00
2023-04-16T15:18:17.611Z,40.50
2023-04-16T15:20:45.667Z,34.00
2023-04-16T15:23:13.633Z,30.00
2023-04-16T15:25:49.068Z,33.00
2023-04-16T15:28:17.224Z,33.00
2023-04-16T15:30:45.270Z,33.00
2023-04-16T15:33:13.762Z,30.00
2023-04-16T15:35:41.763Z,36.00
2023-04-16T15:38:09.923Z,32.50
2023-04-16T15:40:37.873Z,27.00
2023-04-16T15:43:06.123Z,27.67
2023-04-16T15:45:34.432Z,27.33
2023-04-16T15:48:02.420Z,26.00
2023-04-16T15:50:31.650Z,25.00
2023-04-16T15:52:59.655Z,23.50
2023-04-16T15:55:27.779Z,23.00
2023-04-16T15:57:56.087Z,19.00
2023-04-16T16:00:24.115Z,23.00
2023-04-16T16:02:52.776Z,21.50
2023-04-16T16:05:21.135Z,22.50
2023-04-16T16:07:49.139Z,27.00
2023-04-16T16:10:17.166Z,20.00
2023-04-16T16:12:46.553Z,25.00
2023-04-16T16:15:14.751Z,33.00
2023-04-16T16:17:42.702Z,24.00
2023-04-16T16:20:10.845Z,23.00
2023-04-16T16:22:45.319Z,22.00
2023-04-16T16:25:13.310Z,22.00
2023-04-16T16:27:42.143Z,19.00
2023-04-16T16:30:12.540Z,21.00
2023-04-16T16:32:41.250Z,23.00
2023-04-16T16:35:09.540Z,32.00
2023-04-16T16:37:38.201Z,32.00
2023-04-16T16:40:07.741Z,27.50
2023-04-16T16:42:35.706Z,28.00
2023-04-16T16:45:06.092Z,28.00
2023-04-16T16:47:34.388Z,40.00
2023-04-16T16:50:03.232Z,32.00
2023-04-16T16:52:32.214Z,46.00
2023-04-16T16:55:00.150Z,34.00
2023-04-16T16:57:28.036Z,38.50
2023-04-16T16:59:56.014Z,38.00
2023-04-16T17:02:24.124Z,34.50
2023-04-16T17:04:52.897Z,33.00
2023-04-16T17:07:20.948Z,30.00
2023-04-16T17:09:49.834Z,34.00
2023-04-16T17:12:17.817Z,37.00
2023-04-16T17:14:49.494Z,37.50
2023-04-16T17:17:17.482Z,55.00
2023-04-16T17:19:47.968Z,37.50
2023-04-16T17:22:16.055Z,36.00
2023-04-16T17:24:43.935Z,28.50
2023-04-16T17:27:11.874Z,35.00
2023-04-16T17:29:39.816Z,44.00
2023-04-16T17:32:07.828Z,27.00
2023-04-16T17:34:36.225Z,33.50
2023-04-16T17:37:04.067Z,25.00
2023-04-16T17:39:33.248Z,31.00
2023-04-16T17:42:03.071Z,31.33
2023-04-16T17:44:31.215Z,31.00
2023-04-16T17:46:59.268Z,34.00
2023-04-16T17:49:27.512Z,32.00
2023-04-16T17:51:55.465Z,40.00
2023-04-16T17:54:24.415Z,44.00
2023-04-16T17:56:52.430Z,38.00
2023-04-16T17:59:20.474Z,31.00
2023-04-16T18:01:49.839Z,28.00
2023-04-16T18:04:18.378Z,30.00
2023-04-16T18:06:47.350Z,28.50
2023-04-16T18:09:15.714Z,25.50
2023-04-16T18:11:43.791Z,23.00
2023-04-16T18:14:14.032Z,23.00
2023-04-16T18:16:42.152Z,38.33
2023-04-16T18:19:11.562Z,49.00
2023-04-16T18:21:39.688Z,57.50
2023-04-16T18:24:07.905Z,55.50
2023-04-16T18:26:37.813Z,48.00
2023-04-16T18:29:05.914Z,36.50
2023-04-16T18:31:33.985Z,22.50
2023-04-16T18:34:05.754Z,20.50
2023-04-16T18:36:34.031Z,20.00
2023-04-16T18:39:02.734Z,17.00
2023-04-16T18:41:31.386Z,25.00
2023-04-16T18:43:59.562Z,34.50
2023-04-16T18:46:27.778Z,32.50
2023-04-16T18:48:56.026Z,24.00
2023-04-16T18:51:25.192Z,19.00
2023-04-16T18:53:54.676Z,27.00
2023-04-16T18:56:22.721Z,22.00
2023-04-16T19:01:19.493Z,21.50
2023-04-16T19:03:48.600Z,23.50
2023-04-16T19:06:16.753Z,20.00
2023-04-16T19:08:44.894Z,25.00
2023-04-16T19:11:12.812Z,23.00
2023-04-16T19:13:40.831Z,30.00
2023-04-16T19:16:11.770Z,24.50
2023-04-16T19:18:40.184Z,25.00
2023-04-16T19:21:10.148Z,36.00
2023-04-16T19:23:38.354Z,34.00
2023-04-16T19:26:06.748Z,46.00
2023-04-16T19:28:35.030Z,36.00
2023-04-16T19:31:03.156Z,37.00
2023-04-16T19:33:31.480Z,29.00
2023-04-16T19:36:00.516Z,28.50
2023-04-16T19:38:29.217Z,23.00
2023-04-16T19:40:57.346Z,25.00
2023-04-16T19:43:28.389Z,28.00
2023-04-16T19:45:57.389Z,38.50
2023-04-16T19:48:26.286Z,29.33
2023-04-16T19:50:54.198Z,38.50
2023-04-16T19:53:22.243Z,29.00
2023-04-16T19:58:18.037Z,39.50
2023-04-16T20:00:47.378Z,41.00
2023-04-16T20:03:15.659Z,36.67
2023-04-16T20:05:48.354Z,42.00
2023-04-16T20:08:16.448Z,46.00
2023-04-16T20:13:13.741Z,36.33
2023-04-16T20:15:41.984Z,41.67
2023-04-16T20:18:12.821Z,36.00
2023-04-16T20:20:41.512Z,39.00
2023-04-16T20:23:09.456Z,43.67
2023-04-16T20:25:44.005Z,38.00
2023-04-16T20:28:12.513Z,44.33
2023-04-16T20:30:40.817Z,48.50
2023-04-16T20:33:08.821Z,46.00
2023-04-16T20:35:37.984Z,52.00
2023-04-16T20:38:06.037Z,50.00
2023-04-16T20:40:38.026Z,53.00
2023-04-16T20:43:10.263Z,52.00
2023-04-16T20:45:40.883Z,53.00
2023-04-16T20:48:11.867Z,48.00
2023-04-16T20:50:39.792Z,50.00
2023-04-16T20:53:07.824Z,48.00
2023-04-16T20:55:35.909Z,52.00
2023-04-16T20:58:03.738Z,51.00
2023-04-16T21:00:31.777Z,52.00
2023-04-16T21:02:59.821Z,52.75
2023-04-16T21:05:30.212Z,54.00
2023-04-16T21:10:27.430Z,53.00
2023-04-16T21:12:55.752Z,53.00
2023-04-16T21:15:23.676Z,45.00
2023-04-16T21:17:52.282Z,63.00
2023-04-16T21:20:20.122Z,54.00
2023-04-16T21:22:48.164Z,71.00
2023-04-16T21:25:16.302Z,69.00
2023-04-16T21:27:44.338Z,65.00
2023-04-16T21:30:13.375Z,49.00
2023-04-16T21:32:41.365Z,63.00
2023-04-16T21:35:09.659Z,55.00
2023-04-16T21:37:37.673Z,53.00
2023-04-16T21:40:06.592Z,55.00
2023-04-16T21:42:39.754Z,57.00
2023-04-16T21:45:10.579Z,53.50
2023-04-16T21:47:38.885Z,69.00
2023-04-16T21:50:07.826Z,52.00
2023-04-16T21:52:40.693Z,59.00
2023-04-16T21:55:09.704Z,54.00
2023-04-16T21:57:37.806Z,66.50
2023-04-16T22:00:14.430Z,65.00
2023-04-16T22:02:42.925Z,54.00
2023-04-16T22:05:11.748Z,53.50
2023-04-16T22:07:39.839Z,56.00
2023-04-16T22:10:09.021Z,49.50
2023-04-16T22:12:40.040Z,51.00
2023-04-16T22:15:09.180Z,53.00
2023-04-16T22:17:37.327Z,52.00
2023-04-16T22:20:07.338Z,56.00
2023-04-16T22:22:35.593Z,64.50
2023-04-16T22:25:03.658Z,53.00
2023-04-16T22:27:31.687Z,72.00
2023-04-16T22:30:00.694Z,66.00
2023-04-16T22:32:30.325Z,66.00
2023-04-16T22:34:58.653Z,62.00
2023-04-16T22:37:26.659Z,59.00
2023-04-16T22:39:54.594Z,57.00
2023-04-16T22:42:22.848Z,66.00
2023-04-16T22:44:51.342Z,61.50
2023-04-16T22:47:19.399Z,55.00
2023-04-16T22:49:47.950Z,51.50
2023-04-16T22:52:15.965Z,63.00
2023-04-16T22:54:43.916Z,55.00
2023-04-16T22:57:12.003Z,59.00
2023-04-16T22:59:39.892Z,51.00
2023-04-16T23:02:07.805Z,57.00
2023-04-16T23:04:36.137Z,52.00
2023-04-16T23:07:04.223Z,56.00
2023-04-16T23:09:33.536Z,49.00
2023-04-16T23:12:02.043Z,59.00
2023-04-16T23:14:31.781Z,64.00
2023-04-16T23:16:59.982Z,67.00
2023-04-16T23:19:27.981Z,61.50
2023-04-16T23:21:55.928Z,56.50
2023-04-16T23:24:25.500Z,53.50
2023-04-16T23:26:53.815Z,60.00
2023-04-16T23:29:22.389Z,59.00
2023-04-16T23:31:50.547Z,59.50
2023-04-16T23:34:18.828Z,58.00
2023-04-16T23:36:46.915Z,55.67
2023-04-16T23:39:14.981Z,59.00
2023-04-16T23:41:42.946Z,61.00
2023-04-16T23:44:10.957Z,61.00
2023-04-16T23:46:40.734Z,58.00
2023-04-16T23:49:08.713Z,63.00
2023-04-16T23:51:36.878Z,56.00
2023-04-16T23:54:04.798Z,67.00
2023-04-16T23:56:32.624Z,57.00
2023-04-16T23:59:00.530Z,57.00
